sensor_id;sensor_type;location;lat;lon;timestamp;temperature;humidity
20125;DHT22;10223;50.862;4.360;2023-09-12T00:00:11;23.70;99.90
20125;DHT22;10223;50.862;4.360;2023-09-12T00:02:38;24.00;99.90
20125;DHT22;10223;50.862;4.360;2023-09-12T00:05:05;24.10;99.90
20125;DHT22;10223;50.862;4.360;2023-09-12T00:07:32;24.30;99.90
20125;DHT22;10223;50.862;4.360;2023-09-12T00:09:59;24.40;99.90
20125;DHT22;10223;50.862;4.360;2023-09-12T00:12:26;24.50;99.90
20125;DHT22;10223;50.862;4.360;2023-09-12T00:14:53;23.90;99.90
20125;DHT22;10223;50.862;4.360;2023-09-12T00:17:21;23.70;99.90
20125;DHT22;10223;50.862;4.360;2023-09-12T00:19:48;23.90;99.90
20125;DHT22;10223;50.862;4.360;2023-09-12T00:22:14;24.20;99.90
20125;DHT22;10223;50.862;4.360;2023-09-12T00:24:41;24.50;99.90
20125;DHT22;10223;50.862;4.360;2023-09-12T00:27:08;24.70;99.90
20125;DHT22;10223;50.862;4.360;2023-09-12T00:29:35;24.40;99.90
20125;DHT22;10223;50.862;4.360;2023-09-12T00:32:01;23.90;99.90
20125;DHT22;10223;50.862;4.360;2023-09-12T00:34:29;23.70;99.90
20125;DHT22;10223;50.862;4.360;2023-09-12T00:36:56;23.60;99.90
20125;DHT22;10223;50.862;4.360;2023-09-12T00:39:23;23.50;99.90
20125;DHT22;10223;50.862;4.360;2023-09-12T00:41:50;23.60;99.90
20125;DHT22;10223;50.862;4.360;2023-09-12T00:44:16;23.60;99.90
20125;DHT22;10223;50.862;4.360;2023-09-12T00:46:44;23.60;99.90
20125;DHT22;10223;50.862;4.360;2023-09-12T00:49:12;23.50;99.90
20125;DHT22;10223;50.862;4.360;2023-09-12T00:51:42;23.50;99.90
20125;DHT22;10223;50.862;4.360;2023-09-12T00:54:11;23.70;99.90
20125;DHT22;10223;50.862;4.360;2023-09-12T00:56:38;23.80;99.90
20125;DHT22;10223;50.862;4.360;2023-09-12T00:59:05;23.90;99.90
20125;DHT22;10223;50.862;4.360;2023-09-12T01:01:33;24.20;99.90
20125;DHT22;10223;50.862;4.360;2023-09-12T01:04:00;24.50;99.90
20125;DHT22;10223;50.862;4.360;2023-09-12T01:06:29;24.70;99.90
20125;DHT22;10223;50.862;4.360;2023-09-12T01:08:58;24.80;99.90
20125;DHT22;10223;50.862;4.360;2023-09-12T01:11:26;24.90;99.90
20125;DHT22;10223;50.862;4.360;2023-09-12T01:13:53;24.80;99.90
20125;DHT22;10223;50.862;4.360;2023-09-12T01:16:20;24.40;99.90
20125;DHT22;10223;50.862;4.360;2023-09-12T01:18:47;24.20;99.90
20125;DHT22;10223;50.862;4.360;2023-09-12T01:21:39;24.20;99.90
20125;DHT22;10223;50.862;4.360;2023-09-12T01:24:35;24.20;99.90
20125;DHT22;10223;50.862;4.360;2023-09-12T01:27:19;24.00;99.90
20125;DHT22;10223;50.862;4.360;2023-09-12T01:29:47;23.90;99.90
20125;DHT22;10223;50.862;4.360;2023-09-12T01:32:15;24.10;99.90
20125;DHT22;10223;50.862;4.360;2023-09-12T01:34:43;24.00;99.90
20125;DHT22;10223;50.862;4.360;2023-09-12T01:37:09;23.90;99.90
20125;DHT22;10223;50.862;4.360;2023-09-12T01:39:36;24.30;99.90
20125;DHT22;10223;50.862;4.360;2023-09-12T01:42:04;24.10;99.90
20125;DHT22;10223;50.862;4.360;2023-09-12T01:44:34;24.10;99.90
20125;DHT22;10223;50.862;4.360;2023-09-12T01:47:04;23.80;99.90
20125;DHT22;10223;50.862;4.360;2023-09-12T01:49:33;23.60;99.90
20125;DHT22;10223;50.862;4.360;2023-09-12T01:52:00;23.50;99.90
20125;DHT22;10223;50.862;4.360;2023-09-12T01:54:27;23.60;99.90
20125;DHT22;10223;50.862;4.360;2023-09-12T01:56:54;23.80;99.90
20125;DHT22;10223;50.862;4.360;2023-09-12T01:59:23;23.80;99.90
20125;DHT22;10223;50.862;4.360;2023-09-12T02:01:51;23.80;99.90
20125;DHT22;10223;50.862;4.360;2023-09-12T02:04:18;23.60;99.90
20125;DHT22;10223;50.862;4.360;2023-09-12T02:06:45;23.50;99.90
20125;DHT22;10223;50.862;4.360;2023-09-12T02:09:12;23.60;99.90
20125;DHT22;10223;50.862;4.360;2023-09-12T02:11:38;23.20;99.90
20125;DHT22;10223;50.862;4.360;2023-09-12T02:14:05;23.20;99.90
20125;DHT22;10223;50.862;4.360;2023-09-12T02:16:32;22.90;99.90
20125;DHT22;10223;50.862;4.360;2023-09-12T02:19:00;23.00;99.90
20125;DHT22;10223;50.862;4.360;2023-09-12T02:21:27;22.90;99.90
20125;DHT22;10223;50.862;4.360;2023-09-12T02:23:53;22.60;99.90
20125;DHT22;10223;50.862;4.360;2023-09-12T02:26:20;22.30;99.90
20125;DHT22;10223;50.862;4.360;2023-09-12T02:28:47;22.30;99.90
20125;DHT22;10223;50.862;4.360;2023-09-12T02:31:14;22.50;99.90
20125;DHT22;10223;50.862;4.360;2023-09-12T02:33:40;22.60;99.90
20125;DHT22;10223;50.862;4.360;2023-09-12T02:36:08;22.80;99.90
20125;DHT22;10223;50.862;4.360;2023-09-12T02:38:36;22.70;99.90
20125;DHT22;10223;50.862;4.360;2023-09-12T02:41:03;22.60;99.90
20125;DHT22;10223;50.862;4.360;2023-09-12T02:43:30;22.60;99.90
20125;DHT22;10223;50.862;4.360;2023-09-12T02:45:57;22.60;99.90
20125;DHT22;10223;50.862;4.360;2023-09-12T02:48:24;22.60;99.90
20125;DHT22;10223;50.862;4.360;2023-09-12T02:50:51;22.40;99.90
20125;DHT22;10223;50.862;4.360;2023-09-12T02:53:19;22.50;99.90
20125;DHT22;10223;50.862;4.360;2023-09-12T02:55:46;22.70;99.90
20125;DHT22;10223;50.862;4.360;2023-09-12T02:58:13;22.70;99.90
20125;DHT22;10223;50.862;4.360;2023-09-12T03:00:40;22.90;99.90
20125;DHT22;10223;50.862;4.360;2023-09-12T03:03:07;22.90;99.90
20125;DHT22;10223;50.862;4.360;2023-09-12T03:05:34;22.90;99.90
20125;DHT22;10223;50.862;4.360;2023-09-12T03:08:01;23.00;99.90
20125;DHT22;10223;50.862;4.360;2023-09-12T03:10:30;22.90;99.90
20125;DHT22;10223;50.862;4.360;2023-09-12T03:12:57;23.00;99.90
20125;DHT22;10223;50.862;4.360;2023-09-12T03:15:24;23.10;99.90
20125;DHT22;10223;50.862;4.360;2023-09-12T03:17:50;23.20;99.90
20125;DHT22;10223;50.862;4.360;2023-09-12T03:20:17;23.20;99.90
20125;DHT22;10223;50.862;4.360;2023-09-12T03:22:45;23.10;99.90
20125;DHT22;10223;50.862;4.360;2023-09-12T03:25:12;22.80;99.90
20125;DHT22;10223;50.862;4.360;2023-09-12T03:27:40;22.50;99.90
20125;DHT22;10223;50.862;4.360;2023-09-12T03:30:08;22.40;99.90
20125;DHT22;10223;50.862;4.360;2023-09-12T03:32:35;22.50;99.90
20125;DHT22;10223;50.862;4.360;2023-09-12T03:35:02;22.50;99.90
20125;DHT22;10223;50.862;4.360;2023-09-12T03:37:29;22.50;99.90
20125;DHT22;10223;50.862;4.360;2023-09-12T03:39:56;22.70;99.90
20125;DHT22;10223;50.862;4.360;2023-09-12T03:42:22;22.70;99.90
20125;DHT22;10223;50.862;4.360;2023-09-12T03:44:50;22.60;99.90
20125;DHT22;10223;50.862;4.360;2023-09-12T03:47:17;22.70;99.90
20125;DHT22;10223;50.862;4.360;2023-09-12T03:49:44;22.70;99.90
20125;DHT22;10223;50.862;4.360;2023-09-12T03:52:11;22.80;99.90
20125;DHT22;10223;50.862;4.360;2023-09-12T03:54:38;22.70;99.90
20125;DHT22;10223;50.862;4.360;2023-09-12T03:57:04;22.60;99.90
20125;DHT22;10223;50.862;4.360;2023-09-12T03:59:31;22.80;99.90
20125;DHT22;10223;50.862;4.360;2023-09-12T04:02:02;23.10;99.90
20125;DHT22;10223;50.862;4.360;2023-09-12T04:04:29;23.00;99.90
20125;DHT22;10223;50.862;4.360;2023-09-12T04:06:56;22.70;99.90
20125;DHT22;10223;50.862;4.360;2023-09-12T04:09:22;22.80;99.90
20125;DHT22;10223;50.862;4.360;2023-09-12T04:11:49;22.80;99.90
20125;DHT22;10223;50.862;4.360;2023-09-12T04:14:16;22.80;99.90
20125;DHT22;10223;50.862;4.360;2023-09-12T04:16:43;22.80;99.90
20125;DHT22;10223;50.862;4.360;2023-09-12T04:19:11;22.50;99.90
20125;DHT22;10223;50.862;4.360;2023-09-12T04:21:37;22.40;99.90
20125;DHT22;10223;50.862;4.360;2023-09-12T04:24:05;22.30;99.90
20125;DHT22;10223;50.862;4.360;2023-09-12T04:26:32;22.20;99.90
20125;DHT22;10223;50.862;4.360;2023-09-12T04:28:59;22.30;99.90
20125;DHT22;10223;50.862;4.360;2023-09-12T04:31:26;22.50;99.90
20125;DHT22;10223;50.862;4.360;2023-09-12T04:33:53;22.30;99.90
20125;DHT22;10223;50.862;4.360;2023-09-12T04:36:22;22.30;99.90
20125;DHT22;10223;50.862;4.360;2023-09-12T04:38:49;22.40;99.90
20125;DHT22;10223;50.862;4.360;2023-09-12T04:41:16;22.30;99.90
20125;DHT22;10223;50.862;4.360;2023-09-12T04:43:43;22.40;99.90
20125;DHT22;10223;50.862;4.360;2023-09-12T04:46:10;22.50;99.90
20125;DHT22;10223;50.862;4.360;2023-09-12T04:48:37;22.60;99.90
20125;DHT22;10223;50.862;4.360;2023-09-12T04:51:04;22.80;99.90
20125;DHT22;10223;50.862;4.360;2023-09-12T04:53:32;22.90;99.90
20125;DHT22;10223;50.862;4.360;2023-09-12T04:56:00;23.00;99.90
20125;DHT22;10223;50.862;4.360;2023-09-12T04:58:27;23.10;99.90
20125;DHT22;10223;50.862;4.360;2023-09-12T05:00:54;22.90;99.90
20125;DHT22;10223;50.862;4.360;2023-09-12T05:03:21;23.00;99.90
20125;DHT22;10223;50.862;4.360;2023-09-12T05:05:49;23.20;99.90
20125;DHT22;10223;50.862;4.360;2023-09-12T05:08:16;23.40;99.90
20125;DHT22;10223;50.862;4.360;2023-09-12T05:10:45;23.50;99.90
20125;DHT22;10223;50.862;4.360;2023-09-12T05:13:12;23.40;99.90
20125;DHT22;10223;50.862;4.360;2023-09-12T05:15:41;23.50;99.90
20125;DHT22;10223;50.862;4.360;2023-09-12T05:18:08;23.40;99.90
20125;DHT22;10223;50.862;4.360;2023-09-12T05:20:36;23.20;99.90
20125;DHT22;10223;50.862;4.360;2023-09-12T05:23:03;23.10;99.90
20125;DHT22;10223;50.862;4.360;2023-09-12T05:25:30;23.10;99.90
20125;DHT22;10223;50.862;4.360;2023-09-12T05:27:58;23.10;99.90
20125;DHT22;10223;50.862;4.360;2023-09-12T05:30:25;23.10;99.90
20125;DHT22;10223;50.862;4.360;2023-09-12T05:32:52;23.10;99.90
20125;DHT22;10223;50.862;4.360;2023-09-12T05:35:19;23.20;99.90
20125;DHT22;10223;50.862;4.360;2023-09-12T05:37:46;23.10;99.90
20125;DHT22;10223;50.862;4.360;2023-09-12T05:40:13;23.10;99.90
20125;DHT22;10223;50.862;4.360;2023-09-12T05:42:40;23.00;99.90
20125;DHT22;10223;50.862;4.360;2023-09-12T05:45:08;22.80;99.90
20125;DHT22;10223;50.862;4.360;2023-09-12T05:47:35;22.80;99.90
20125;DHT22;10223;50.862;4.360;2023-09-12T05:50:02;22.80;99.90
20125;DHT22;10223;50.862;4.360;2023-09-12T05:52:32;22.70;99.90
20125;DHT22;10223;50.862;4.360;2023-09-12T05:54:59;22.80;99.90
20125;DHT22;10223;50.862;4.360;2023-09-12T05:57:26;22.70;99.90
20125;DHT22;10223;50.862;4.360;2023-09-12T05:59:52;22.80;99.90
20125;DHT22;10223;50.862;4.360;2023-09-12T06:02:21;23.00;99.90
20125;DHT22;10223;50.862;4.360;2023-09-12T06:04:47;23.10;99.90
20125;DHT22;10223;50.862;4.360;2023-09-12T06:07:14;23.30;99.90
20125;DHT22;10223;50.862;4.360;2023-09-12T06:09:41;23.20;99.90
20125;DHT22;10223;50.862;4.360;2023-09-12T06:12:08;23.10;99.90
20125;DHT22;10223;50.862;4.360;2023-09-12T06:14:35;22.90;99.90
20125;DHT22;10223;50.862;4.360;2023-09-12T06:17:02;22.90;99.90
20125;DHT22;10223;50.862;4.360;2023-09-12T06:19:30;23.00;99.90
20125;DHT22;10223;50.862;4.360;2023-09-12T06:21:57;23.00;99.90
20125;DHT22;10223;50.862;4.360;2023-09-12T06:24:24;23.00;99.90
20125;DHT22;10223;50.862;4.360;2023-09-12T06:26:50;23.00;99.90
20125;DHT22;10223;50.862;4.360;2023-09-12T06:29:18;23.00;99.90
20125;DHT22;10223;50.862;4.360;2023-09-12T06:31:44;23.10;99.90
20125;DHT22;10223;50.862;4.360;2023-09-12T06:34:11;23.10;99.90
20125;DHT22;10223;50.862;4.360;2023-09-12T06:36:40;23.00;99.90
20125;DHT22;10223;50.862;4.360;2023-09-12T06:39:10;22.90;99.90
20125;DHT22;10223;50.862;4.360;2023-09-12T06:41:37;22.90;99.90
20125;DHT22;10223;50.862;4.360;2023-09-12T06:44:04;22.90;99.90
20125;DHT22;10223;50.862;4.360;2023-09-12T06:46:32;22.70;99.90
20125;DHT22;10223;50.862;4.360;2023-09-12T06:49:01;22.90;99.90
20125;DHT22;10223;50.862;4.360;2023-09-12T06:51:28;23.10;99.90
20125;DHT22;10223;50.862;4.360;2023-09-12T06:53:56;23.10;99.90
20125;DHT22;10223;50.862;4.360;2023-09-12T06:56:23;23.10;99.90
20125;DHT22;10223;50.862;4.360;2023-09-12T06:58:50;23.30;99.90
20125;DHT22;10223;50.862;4.360;2023-09-12T07:01:18;23.30;99.90
20125;DHT22;10223;50.862;4.360;2023-09-12T07:03:45;23.50;99.90
20125;DHT22;10223;50.862;4.360;2023-09-12T07:06:12;23.30;99.90
20125;DHT22;10223;50.862;4.360;2023-09-12T07:08:39;23.40;99.90
20125;DHT22;10223;50.862;4.360;2023-09-12T07:11:07;23.40;99.90
20125;DHT22;10223;50.862;4.360;2023-09-12T07:13:34;23.40;99.90
20125;DHT22;10223;50.862;4.360;2023-09-12T07:16:01;23.30;99.90
20125;DHT22;10223;50.862;4.360;2023-09-12T07:18:29;23.30;99.90
20125;DHT22;10223;50.862;4.360;2023-09-12T07:20:58;23.20;99.90
20125;DHT22;10223;50.862;4.360;2023-09-12T07:23:25;23.30;99.90
20125;DHT22;10223;50.862;4.360;2023-09-12T07:25:52;23.30;99.90
20125;DHT22;10223;50.862;4.360;2023-09-12T07:28:21;23.10;99.90
20125;DHT22;10223;50.862;4.360;2023-09-12T07:30:47;23.20;99.90
20125;DHT22;10223;50.862;4.360;2023-09-12T07:33:14;22.80;99.90
20125;DHT22;10223;50.862;4.360;2023-09-12T07:35:41;22.60;99.90
20125;DHT22;10223;50.862;4.360;2023-09-12T07:38:08;22.80;99.90
20125;DHT22;10223;50.862;4.360;2023-09-12T07:40:35;23.30;99.90
20125;DHT22;10223;50.862;4.360;2023-09-12T07:43:01;23.60;99.90
20125;DHT22;10223;50.862;4.360;2023-09-12T07:45:30;23.90;99.90
20125;DHT22;10223;50.862;4.360;2023-09-12T07:47:57;23.80;99.90
20125;DHT22;10223;50.862;4.360;2023-09-12T07:50:24;23.80;99.90
20125;DHT22;10223;50.862;4.360;2023-09-12T07:52:51;23.60;99.90
20125;DHT22;10223;50.862;4.360;2023-09-12T07:55:17;23.60;99.90
20125;DHT22;10223;50.862;4.360;2023-09-12T07:57:44;23.70;99.90
20125;DHT22;10223;50.862;4.360;2023-09-12T08:00:12;24.10;99.90
20125;DHT22;10223;50.862;4.360;2023-09-12T08:02:40;24.20;99.90
20125;DHT22;10223;50.862;4.360;2023-09-12T08:05:07;24.20;99.90
20125;DHT22;10223;50.862;4.360;2023-09-12T08:07:35;23.60;99.90
20125;DHT22;10223;50.862;4.360;2023-09-12T08:10:02;23.70;99.90
20125;DHT22;10223;50.862;4.360;2023-09-12T08:12:29;24.20;99.90
20125;DHT22;10223;50.862;4.360;2023-09-12T08:14:56;24.80;99.90
20125;DHT22;10223;50.862;4.360;2023-09-12T08:17:24;24.90;99.90
20125;DHT22;10223;50.862;4.360;2023-09-12T08:19:52;25.10;99.90
20125;DHT22;10223;50.862;4.360;2023-09-12T08:22:19;24.90;99.90
20125;DHT22;10223;50.862;4.360;2023-09-12T08:24:46;25.30;99.90
20125;DHT22;10223;50.862;4.360;2023-09-12T08:27:13;25.70;99.90
20125;DHT22;10223;50.862;4.360;2023-09-12T08:29:39;25.60;99.90
20125;DHT22;10223;50.862;4.360;2023-09-12T08:32:07;26.20;99.90
20125;DHT22;10223;50.862;4.360;2023-09-12T08:34:34;26.80;99.90
20125;DHT22;10223;50.862;4.360;2023-09-12T08:37:02;27.20;99.90
20125;DHT22;10223;50.862;4.360;2023-09-12T08:39:40;27.60;99.90
20125;DHT22;10223;50.862;4.360;2023-09-12T08:42:11;27.30;99.90
20125;DHT22;10223;50.862;4.360;2023-09-12T08:44:38;27.20;99.90
20125;DHT22;10223;50.862;4.360;2023-09-12T08:47:07;27.60;99.90
20125;DHT22;10223;50.862;4.360;2023-09-12T08:49:35;27.90;99.90
20125;DHT22;10223;50.862;4.360;2023-09-12T08:52:04;28.20;99.90
20125;DHT22;10223;50.862;4.360;2023-09-12T08:54:31;28.90;99.90
20125;DHT22;10223;50.862;4.360;2023-09-12T08:56:58;29.60;99.90
20125;DHT22;10223;50.862;4.360;2023-09-12T08:59:26;30.00;99.90
20125;DHT22;10223;50.862;4.360;2023-09-12T09:01:54;30.10;99.90
20125;DHT22;10223;50.862;4.360;2023-09-12T09:04:23;29.80;99.90
20125;DHT22;10223;50.862;4.360;2023-09-12T09:06:52;29.00;99.90
20125;DHT22;10223;50.862;4.360;2023-09-12T09:09:22;28.10;99.90
20125;DHT22;10223;50.862;4.360;2023-09-12T09:11:49;27.80;99.90
20125;DHT22;10223;50.862;4.360;2023-09-12T09:14:16;28.20;99.90
20125;DHT22;10223;50.862;4.360;2023-09-12T09:16:43;28.70;99.90
20125;DHT22;10223;50.862;4.360;2023-09-12T09:19:10;28.90;99.90
20125;DHT22;10223;50.862;4.360;2023-09-12T09:21:37;28.30;99.90
20125;DHT22;10223;50.862;4.360;2023-09-12T09:24:08;28.80;99.90
20125;DHT22;10223;50.862;4.360;2023-09-12T09:26:47;29.30;99.90
20125;DHT22;10223;50.862;4.360;2023-09-12T09:29:15;29.70;99.90
20125;DHT22;10223;50.862;4.360;2023-09-12T09:31:43;29.70;99.90
20125;DHT22;10223;50.862;4.360;2023-09-12T09:34:11;29.80;99.90
20125;DHT22;10223;50.862;4.360;2023-09-12T09:36:41;29.30;99.90
20125;DHT22;10223;50.862;4.360;2023-09-12T09:39:09;29.10;99.90
20125;DHT22;10223;50.862;4.360;2023-09-12T09:41:36;29.40;99.90
20125;DHT22;10223;50.862;4.360;2023-09-12T09:44:05;29.50;99.90
20125;DHT22;10223;50.862;4.360;2023-09-12T09:46:33;29.40;99.90
20125;DHT22;10223;50.862;4.360;2023-09-12T09:49:01;28.90;99.90
20125;DHT22;10223;50.862;4.360;2023-09-12T09:51:29;28.30;99.90
20125;DHT22;10223;50.862;4.360;2023-09-12T09:53:57;28.40;99.90
20125;DHT22;10223;50.862;4.360;2023-09-12T09:56:26;28.00;99.90
20125;DHT22;10223;50.862;4.360;2023-09-12T09:58:53;28.30;99.90
20125;DHT22;10223;50.862;4.360;2023-09-12T10:01:23;27.90;99.90
20125;DHT22;10223;50.862;4.360;2023-09-12T10:03:52;28.10;99.90
20125;DHT22;10223;50.862;4.360;2023-09-12T10:06:19;29.00;99.90
20125;DHT22;10223;50.862;4.360;2023-09-12T10:08:50;29.90;99.90
20125;DHT22;10223;50.862;4.360;2023-09-12T10:11:18;30.40;99.90
20125;DHT22;10223;50.862;4.360;2023-09-12T10:13:49;30.80;99.90
20125;DHT22;10223;50.862;4.360;2023-09-12T10:16:22;30.40;99.90
20125;DHT22;10223;50.862;4.360;2023-09-12T10:18:57;30.00;99.90
20125;DHT22;10223;50.862;4.360;2023-09-12T10:21:29;29.70;99.90
20125;DHT22;10223;50.862;4.360;2023-09-12T10:23:58;29.70;99.90
20125;DHT22;10223;50.862;4.360;2023-09-12T10:26:26;29.40;99.90
20125;DHT22;10223;50.862;4.360;2023-09-12T10:28:54;29.00;99.90
20125;DHT22;10223;50.862;4.360;2023-09-12T10:31:24;28.00;99.90
20125;DHT22;10223;50.862;4.360;2023-09-12T10:33:51;27.90;99.90
20125;DHT22;10223;50.862;4.360;2023-09-12T10:36:19;27.90;99.90
20125;DHT22;10223;50.862;4.360;2023-09-12T10:38:48;28.00;99.90
20125;DHT22;10223;50.862;4.360;2023-09-12T10:41:15;28.10;99.90
20125;DHT22;10223;50.862;4.360;2023-09-12T10:43:44;28.20;99.90
20125;DHT22;10223;50.862;4.360;2023-09-12T10:46:15;28.30;99.90
20125;DHT22;10223;50.862;4.360;2023-09-12T10:48:43;28.30;99.90
20125;DHT22;10223;50.862;4.360;2023-09-12T10:51:11;28.40;99.90
20125;DHT22;10223;50.862;4.360;2023-09-12T10:53:39;29.00;99.90
20125;DHT22;10223;50.862;4.360;2023-09-12T10:56:17;29.20;99.90
20125;DHT22;10223;50.862;4.360;2023-09-12T10:59:09;29.00;99.90
20125;DHT22;10223;50.862;4.360;2023-09-12T11:01:38;29.50;99.90
20125;DHT22;10223;50.862;4.360;2023-09-12T11:04:31;30.10;99.90
20125;DHT22;10223;50.862;4.360;2023-09-12T11:07:00;30.00;99.90
20125;DHT22;10223;50.862;4.360;2023-09-12T11:09:27;29.40;99.90
20125;DHT22;10223;50.862;4.360;2023-09-12T11:11:59;28.90;99.90
20125;DHT22;10223;50.862;4.360;2023-09-12T11:14:28;28.90;99.90
20125;DHT22;10223;50.862;4.360;2023-09-12T11:17:20;28.80;99.90
20125;DHT22;10223;50.862;4.360;2023-09-12T11:19:51;29.10;99.90
20125;DHT22;10223;50.862;4.360;2023-09-12T11:22:26;29.20;99.90
20125;DHT22;10223;50.862;4.360;2023-09-12T11:24:54;29.40;99.90
20125;DHT22;10223;50.862;4.360;2023-09-12T11:27:22;29.70;99.90
20125;DHT22;10223;50.862;4.360;2023-09-12T11:29:49;30.10;99.90
20125;DHT22;10223;50.862;4.360;2023-09-12T11:32:27;30.40;99.90
20125;DHT22;10223;50.862;4.360;2023-09-12T11:34:55;30.40;99.90
20125;DHT22;10223;50.862;4.360;2023-09-12T11:37:24;30.00;99.90
20125;DHT22;10223;50.862;4.360;2023-09-12T11:39:51;30.00;99.90
20125;DHT22;10223;50.862;4.360;2023-09-12T11:42:18;29.80;99.90
20125;DHT22;10223;50.862;4.360;2023-09-12T11:44:46;30.10;99.90
20125;DHT22;10223;50.862;4.360;2023-09-12T11:47:14;30.20;99.90
20125;DHT22;10223;50.862;4.360;2023-09-12T11:49:41;30.80;99.90
20125;DHT22;10223;50.862;4.360;2023-09-12T11:52:10;31.10;99.90
20125;DHT22;10223;50.862;4.360;2023-09-12T11:54:39;30.90;99.90
20125;DHT22;10223;50.862;4.360;2023-09-12T11:57:07;30.50;99.90
20125;DHT22;10223;50.862;4.360;2023-09-12T11:59:37;30.50;99.90
20125;DHT22;10223;50.862;4.360;2023-09-12T12:02:06;30.30;99.90
20125;DHT22;10223;50.862;4.360;2023-09-12T12:04:34;30.10;99.90
20125;DHT22;10223;50.862;4.360;2023-09-12T12:07:02;30.30;99.90
20125;DHT22;10223;50.862;4.360;2023-09-12T12:09:31;30.30;99.90
20125;DHT22;10223;50.862;4.360;2023-09-12T12:12:04;30.10;99.90
20125;DHT22;10223;50.862;4.360;2023-09-12T12:14:34;29.50;99.90
20125;DHT22;10223;50.862;4.360;2023-09-12T12:17:05;29.70;99.90
20125;DHT22;10223;50.862;4.360;2023-09-12T12:19:33;29.90;99.90
20125;DHT22;10223;50.862;4.360;2023-09-12T12:22:00;29.90;99.90
20125;DHT22;10223;50.862;4.360;2023-09-12T12:24:38;29.90;99.90
20125;DHT22;10223;50.862;4.360;2023-09-12T12:27:05;29.20;99.90
20125;DHT22;10223;50.862;4.360;2023-09-12T12:29:34;29.30;99.90
20125;DHT22;10223;50.862;4.360;2023-09-12T12:32:01;29.20;99.90
20125;DHT22;10223;50.862;4.360;2023-09-12T12:34:28;29.50;99.90
20125;DHT22;10223;50.862;4.360;2023-09-12T12:36:55;29.90;99.90
20125;DHT22;10223;50.862;4.360;2023-09-12T12:39:22;29.90;99.90
20125;DHT22;10223;50.862;4.360;2023-09-12T12:41:53;29.80;99.90
20125;DHT22;10223;50.862;4.360;2023-09-12T12:44:20;29.70;99.90
20125;DHT22;10223;50.862;4.360;2023-09-12T12:46:51;29.80;99.90
20125;DHT22;10223;50.862;4.360;2023-09-12T12:49:18;29.60;99.90
20125;DHT22;10223;50.862;4.360;2023-09-12T12:51:46;29.00;99.90
20125;DHT22;10223;50.862;4.360;2023-09-12T12:54:13;29.00;99.90
20125;DHT22;10223;50.862;4.360;2023-09-12T12:56:40;28.70;99.90
20125;DHT22;10223;50.862;4.360;2023-09-12T12:59:10;28.60;99.90
20125;DHT22;10223;50.862;4.360;2023-09-12T13:01:38;28.50;99.90
20125;DHT22;10223;50.862;4.360;2023-09-12T13:04:06;28.50;99.90
20125;DHT22;10223;50.862;4.360;2023-09-12T13:06:33;28.50;99.90
20125;DHT22;10223;50.862;4.360;2023-09-12T13:09:02;28.40;99.90
20125;DHT22;10223;50.862;4.360;2023-09-12T13:11:30;28.30;99.90
20125;DHT22;10223;50.862;4.360;2023-09-12T13:13:58;28.40;99.90
20125;DHT22;10223;50.862;4.360;2023-09-12T13:16:27;28.10;99.90
20125;DHT22;10223;50.862;4.360;2023-09-12T13:18:54;27.90;99.90
20125;DHT22;10223;50.862;4.360;2023-09-12T13:21:21;27.80;99.90
20125;DHT22;10223;50.862;4.360;2023-09-12T13:23:48;27.80;99.90
20125;DHT22;10223;50.862;4.360;2023-09-12T13:26:15;27.40;99.90
20125;DHT22;10223;50.862;4.360;2023-09-12T13:28:42;27.60;99.90
20125;DHT22;10223;50.862;4.360;2023-09-12T13:31:08;27.50;99.90
20125;DHT22;10223;50.862;4.360;2023-09-12T13:33:36;27.50;99.90
20125;DHT22;10223;50.862;4.360;2023-09-12T13:36:04;27.40;99.90
20125;DHT22;10223;50.862;4.360;2023-09-12T13:38:31;27.30;99.90
20125;DHT22;10223;50.862;4.360;2023-09-12T13:40:57;26.90;99.90
20125;DHT22;10223;50.862;4.360;2023-09-12T13:43:24;27.00;99.90
20125;DHT22;10223;50.862;4.360;2023-09-12T13:45:51;27.10;99.90
20125;DHT22;10223;50.862;4.360;2023-09-12T13:48:18;27.10;99.90
20125;DHT22;10223;50.862;4.360;2023-09-12T13:50:46;27.10;99.90
20125;DHT22;10223;50.862;4.360;2023-09-12T13:53:13;27.10;99.90
20125;DHT22;10223;50.862;4.360;2023-09-12T13:55:40;27.00;99.90
20125;DHT22;10223;50.862;4.360;2023-09-12T13:58:06;26.90;99.90
20125;DHT22;10223;50.862;4.360;2023-09-12T14:00:34;26.80;99.90
20125;DHT22;10223;50.862;4.360;2023-09-12T14:03:01;26.90;99.90
20125;DHT22;10223;50.862;4.360;2023-09-12T14:05:28;26.90;99.90
20125;DHT22;10223;50.862;4.360;2023-09-12T14:07:56;26.60;99.90
20125;DHT22;10223;50.862;4.360;2023-09-12T14:10:23;26.60;99.90
20125;DHT22;10223;50.862;4.360;2023-09-12T14:12:50;26.50;99.90
20125;DHT22;10223;50.862;4.360;2023-09-12T14:15:17;26.60;99.90
20125;DHT22;10223;50.862;4.360;2023-09-12T14:17:44;26.70;99.90
20125;DHT22;10223;50.862;4.360;2023-09-12T14:20:11;26.70;99.90
20125;DHT22;10223;50.862;4.360;2023-09-12T14:22:42;26.70;99.90
20125;DHT22;10223;50.862;4.360;2023-09-12T14:25:11;26.80;99.90
20125;DHT22;10223;50.862;4.360;2023-09-12T14:27:41;26.60;99.90
20125;DHT22;10223;50.862;4.360;2023-09-12T14:30:09;26.70;99.90
20125;DHT22;10223;50.862;4.360;2023-09-12T14:32:36;26.60;99.90
20125;DHT22;10223;50.862;4.360;2023-09-12T14:35:03;26.60;99.90
20125;DHT22;10223;50.862;4.360;2023-09-12T14:37:30;26.60;99.90
20125;DHT22;10223;50.862;4.360;2023-09-12T14:39:57;26.60;99.90
20125;DHT22;10223;50.862;4.360;2023-09-12T14:42:26;26.30;99.90
20125;DHT22;10223;50.862;4.360;2023-09-12T14:44:54;26.20;99.90
20125;DHT22;10223;50.862;4.360;2023-09-12T14:47:21;26.20;99.90
20125;DHT22;10223;50.862;4.360;2023-09-12T14:49:49;26.20;99.90
20125;DHT22;10223;50.862;4.360;2023-09-12T14:52:16;26.30;99.90
20125;DHT22;10223;50.862;4.360;2023-09-12T14:54:43;26.00;99.90
20125;DHT22;10223;50.862;4.360;2023-09-12T14:57:09;26.10;99.90
20125;DHT22;10223;50.862;4.360;2023-09-12T14:59:38;26.00;99.90
20125;DHT22;10223;50.862;4.360;2023-09-12T15:02:04;25.70;99.90
20125;DHT22;10223;50.862;4.360;2023-09-12T15:04:31;25.70;99.90
20125;DHT22;10223;50.862;4.360;2023-09-12T15:06:58;25.80;99.90
20125;DHT22;10223;50.862;4.360;2023-09-12T15:09:25;25.90;99.90
20125;DHT22;10223;50.862;4.360;2023-09-12T15:11:51;25.90;99.90
20125;DHT22;10223;50.862;4.360;2023-09-12T15:14:18;25.90;99.90
20125;DHT22;10223;50.862;4.360;2023-09-12T15:16:46;26.00;99.90
20125;DHT22;10223;50.862;4.360;2023-09-12T15:19:13;26.10;99.90
20125;DHT22;10223;50.862;4.360;2023-09-12T15:21:40;26.00;99.90
20125;DHT22;10223;50.862;4.360;2023-09-12T15:24:07;25.90;99.90
20125;DHT22;10223;50.862;4.360;2023-09-12T15:26:34;25.90;99.90
20125;DHT22;10223;50.862;4.360;2023-09-12T15:29:01;25.70;99.90
20125;DHT22;10223;50.862;4.360;2023-09-12T15:31:28;25.90;99.90
20125;DHT22;10223;50.862;4.360;2023-09-12T15:33:56;25.80;99.90